sensor_id;sensor_type;location;lat;lon;timestamp;temperature;humidity
7900;DHT22;3995;50.856;4.404;2023-11-19T00:00:39;15.20;83.10
7900;DHT22;3995;50.856;4.404;2023-11-19T00:03:06;15.20;83.10
7900;DHT22;3995;50.856;4.404;2023-11-19T00:05:34;15.20;83.10
7900;DHT22;3995;50.856;4.404;2023-11-19T00:08:01;15.20;83.10
7900;DHT22;3995;50.856;4.404;2023-11-19T00:10:28;15.20;83.10
7900;DHT22;3995;50.856;4.404;2023-11-19T00:12:55;15.20;83.20
7900;DHT22;3995;50.856;4.404;2023-11-19T00:15:25;15.20;83.20
7900;DHT22;3995;50.856;4.404;2023-11-19T00:17:52;15.30;83.20
7900;DHT22;3995;50.856;4.404;2023-11-19T00:20:19;15.30;83.20
7900;DHT22;3995;50.856;4.404;2023-11-19T00:22:48;15.30;83.20
7900;DHT22;3995;50.856;4.404;2023-11-19T00:25:17;15.30;83.20
7900;DHT22;3995;50.856;4.404;2023-11-19T00:27:44;15.30;83.20
7900;DHT22;3995;50.856;4.404;2023-11-19T00:30:11;15.30;83.20
7900;DHT22;3995;50.856;4.404;2023-11-19T00:32:41;15.30;83.20
7900;DHT22;3995;50.856;4.404;2023-11-19T00:35:08;15.30;83.20
7900;DHT22;3995;50.856;4.404;2023-11-19T00:37:36;15.30;83.30
7900;DHT22;3995;50.856;4.404;2023-11-19T00:40:03;15.30;83.30
7900;DHT22;3995;50.856;4.404;2023-11-19T00:42:31;15.30;83.30
7900;DHT22;3995;50.856;4.404;2023-11-19T00:44:58;15.30;83.20
7900;DHT22;3995;50.856;4.404;2023-11-19T00:47:27;15.30;83.30
7900;DHT22;3995;50.856;4.404;2023-11-19T00:49:55;15.30;83.20
7900;DHT22;3995;50.856;4.404;2023-11-19T00:52:22;15.40;83.30
7900;DHT22;3995;50.856;4.404;2023-11-19T00:54:49;15.30;83.20
7900;DHT22;3995;50.856;4.404;2023-11-19T00:57:16;15.30;83.10
7900;DHT22;3995;50.856;4.404;2023-11-19T00:59:43;15.30;83.10
7900;DHT22;3995;50.856;4.404;2023-11-19T01:02:11;15.40;83.20
7900;DHT22;3995;50.856;4.404;2023-11-19T01:04:40;15.30;83.10
7900;DHT22;3995;50.856;4.404;2023-11-19T01:07:08;15.30;83.00
7900;DHT22;3995;50.856;4.404;2023-11-19T01:09:38;15.40;83.00
7900;DHT22;3995;50.856;4.404;2023-11-19T01:12:06;15.30;82.90
7900;DHT22;3995;50.856;4.404;2023-11-19T01:14:34;15.30;82.70
7900;DHT22;3995;50.856;4.404;2023-11-19T01:17:01;15.30;82.60
7900;DHT22;3995;50.856;4.404;2023-11-19T01:19:29;15.30;82.60
7900;DHT22;3995;50.856;4.404;2023-11-19T01:21:56;15.30;82.50
7900;DHT22;3995;50.856;4.404;2023-11-19T01:24:24;15.40;82.60
7900;DHT22;3995;50.856;4.404;2023-11-19T01:26:54;15.40;82.50
7900;DHT22;3995;50.856;4.404;2023-11-19T01:29:26;15.40;82.50
7900;DHT22;3995;50.856;4.404;2023-11-19T01:31:53;15.40;82.60
7900;DHT22;3995;50.856;4.404;2023-11-19T01:34:20;15.40;82.50
7900;DHT22;3995;50.856;4.404;2023-11-19T01:36:47;15.40;82.50
7900;DHT22;3995;50.856;4.404;2023-11-19T01:39:14;15.40;82.40
7900;DHT22;3995;50.856;4.404;2023-11-19T01:41:44;15.40;82.30
7900;DHT22;3995;50.856;4.404;2023-11-19T01:44:11;15.40;82.30
7900;DHT22;3995;50.856;4.404;2023-11-19T01:46:40;15.40;82.20
7900;DHT22;3995;50.856;4.404;2023-11-19T01:49:09;15.40;82.10
7900;DHT22;3995;50.856;4.404;2023-11-19T01:51:38;15.40;82.00
7900;DHT22;3995;50.856;4.404;2023-11-19T01:54:06;15.40;81.90
7900;DHT22;3995;50.856;4.404;2023-11-19T01:56:34;15.40;81.80
7900;DHT22;3995;50.856;4.404;2023-11-19T01:59:04;15.40;81.70
7900;DHT22;3995;50.856;4.404;2023-11-19T02:01:31;15.40;81.60
7900;DHT22;3995;50.856;4.404;2023-11-19T02:04:02;15.40;81.50
7900;DHT22;3995;50.856;4.404;2023-11-19T02:06:30;15.40;81.40
7900;DHT22;3995;50.856;4.404;2023-11-19T02:08:59;15.40;81.30
7900;DHT22;3995;50.856;4.404;2023-11-19T02:11:27;15.40;81.20
7900;DHT22;3995;50.856;4.404;2023-11-19T02:13:55;15.30;81.00
7900;DHT22;3995;50.856;4.404;2023-11-19T02:16:23;15.30;80.90
7900;DHT22;3995;50.856;4.404;2023-11-19T02:18:51;15.40;80.80
7900;DHT22;3995;50.856;4.404;2023-11-19T02:21:18;15.40;80.80
7900;DHT22;3995;50.856;4.404;2023-11-19T02:23:45;15.30;80.60
7900;DHT22;3995;50.856;4.404;2023-11-19T02:26:16;15.30;80.40
7900;DHT22;3995;50.856;4.404;2023-11-19T02:28:47;15.40;80.40
7900;DHT22;3995;50.856;4.404;2023-11-19T02:31:14;15.30;80.20
7900;DHT22;3995;50.856;4.404;2023-11-19T02:33:41;15.30;80.20
7900;DHT22;3995;50.856;4.404;2023-11-19T02:36:09;15.30;80.10
7900;DHT22;3995;50.856;4.404;2023-11-19T02:38:36;15.30;80.00
7900;DHT22;3995;50.856;4.404;2023-11-19T02:41:04;15.40;80.10
7900;DHT22;3995;50.856;4.404;2023-11-19T02:43:31;15.40;80.00
7900;DHT22;3995;50.856;4.404;2023-11-19T02:46:02;15.30;79.90
7900;DHT22;3995;50.856;4.404;2023-11-19T02:48:32;15.40;79.90
7900;DHT22;3995;50.856;4.404;2023-11-19T02:51:01;15.30;79.80
7900;DHT22;3995;50.856;4.404;2023-11-19T02:53:29;15.30;79.70
7900;DHT22;3995;50.856;4.404;2023-11-19T02:55:56;15.30;79.70
7900;DHT22;3995;50.856;4.404;2023-11-19T02:58:27;15.30;79.70
7900;DHT22;3995;50.856;4.404;2023-11-19T03:00:54;15.30;80.30
7900;DHT22;3995;50.856;4.404;2023-11-19T03:03:26;15.30;79.70
7900;DHT22;3995;50.856;4.404;2023-11-19T03:06:04;15.30;79.60
7900;DHT22;3995;50.856;4.404;2023-11-19T03:08:31;15.30;79.60
7900;DHT22;3995;50.856;4.404;2023-11-19T03:10:58;15.30;79.50
7900;DHT22;3995;50.856;4.404;2023-11-19T03:13:25;15.30;79.40
7900;DHT22;3995;50.856;4.404;2023-11-19T03:15:52;15.30;79.30
7900;DHT22;3995;50.856;4.404;2023-11-19T03:18:20;15.30;79.20
7900;DHT22;3995;50.856;4.404;2023-11-19T03:20:49;15.30;79.10
7900;DHT22;3995;50.856;4.404;2023-11-19T03:23:16;15.20;78.80
7900;DHT22;3995;50.856;4.404;2023-11-19T03:25:43;15.20;78.80
7900;DHT22;3995;50.856;4.404;2023-11-19T03:28:10;15.20;78.70
7900;DHT22;3995;50.856;4.404;2023-11-19T03:30:38;15.20;78.60
7900;DHT22;3995;50.856;4.404;2023-11-19T03:33:05;15.20;78.60
7900;DHT22;3995;50.856;4.404;2023-11-19T03:35:32;15.20;78.50
7900;DHT22;3995;50.856;4.404;2023-11-19T03:38:01;15.20;78.40
7900;DHT22;3995;50.856;4.404;2023-11-19T03:40:29;15.20;78.30
7900;DHT22;3995;50.856;4.404;2023-11-19T03:42:56;15.20;78.20
7900;DHT22;3995;50.856;4.404;2023-11-19T03:45:23;15.20;78.20
7900;DHT22;3995;50.856;4.404;2023-11-19T03:47:51;15.20;78.00
7900;DHT22;3995;50.856;4.404;2023-11-19T03:50:18;15.20;78.00
7900;DHT22;3995;50.856;4.404;2023-11-19T03:52:46;15.20;77.90
7900;DHT22;3995;50.856;4.404;2023-11-19T03:55:15;15.20;77.80
7900;DHT22;3995;50.856;4.404;2023-11-19T03:57:42;15.20;77.70
7900;DHT22;3995;50.856;4.404;2023-11-19T04:00:10;15.20;77.70
7900;DHT22;3995;50.856;4.404;2023-11-19T04:02:39;15.10;77.40
7900;DHT22;3995;50.856;4.404;2023-11-19T04:05:07;15.20;77.50
7900;DHT22;3995;50.856;4.404;2023-11-19T04:07:35;15.10;77.20
7900;DHT22;3995;50.856;4.404;2023-11-19T04:10:03;15.10;77.20
7900;DHT22;3995;50.856;4.404;2023-11-19T04:12:32;15.10;77.10
7900;DHT22;3995;50.856;4.404;2023-11-19T04:14:59;15.10;77.00
7900;DHT22;3995;50.856;4.404;2023-11-19T04:17:26;15.10;77.00
7900;DHT22;3995;50.856;4.404;2023-11-19T04:19:54;15.10;76.90
7900;DHT22;3995;50.856;4.404;2023-11-19T04:22:21;15.10;76.90
7900;DHT22;3995;50.856;4.404;2023-11-19T04:24:50;15.10;76.80
7900;DHT22;3995;50.856;4.404;2023-11-19T04:27:17;15.10;76.80
7900;DHT22;3995;50.856;4.404;2023-11-19T04:29:46;15.10;76.70
7900;DHT22;3995;50.856;4.404;2023-11-19T04:32:14;15.10;76.60
7900;DHT22;3995;50.856;4.404;2023-11-19T04:34:41;15.10;76.60
7900;DHT22;3995;50.856;4.404;2023-11-19T04:37:08;15.10;76.50
7900;DHT22;3995;50.856;4.404;2023-11-19T04:39:35;15.10;76.40
7900;DHT22;3995;50.856;4.404;2023-11-19T04:42:03;15.10;76.30
7900;DHT22;3995;50.856;4.404;2023-11-19T04:44:32;15.10;76.20
7900;DHT22;3995;50.856;4.404;2023-11-19T04:47:00;15.00;76.00
7900;DHT22;3995;50.856;4.404;2023-11-19T04:49:27;15.10;75.90
7900;DHT22;3995;50.856;4.404;2023-11-19T04:51:56;15.00;75.70
7900;DHT22;3995;50.856;4.404;2023-11-19T04:54:31;15.10;75.70
7900;DHT22;3995;50.856;4.404;2023-11-19T04:56:58;15.00;75.60
7900;DHT22;3995;50.856;4.404;2023-11-19T04:59:25;15.00;75.50
7900;DHT22;3995;50.856;4.404;2023-11-19T05:01:53;15.00;75.40
7900;DHT22;3995;50.856;4.404;2023-11-19T05:04:21;15.00;75.30
7900;DHT22;3995;50.856;4.404;2023-11-19T05:06:48;15.00;75.30
7900;DHT22;3995;50.856;4.404;2023-11-19T05:09:15;15.00;75.30
7900;DHT22;3995;50.856;4.404;2023-11-19T05:11:43;15.00;75.20
7900;DHT22;3995;50.856;4.404;2023-11-19T05:14:10;15.00;75.20
7900;DHT22;3995;50.856;4.404;2023-11-19T05:16:39;15.00;75.10
7900;DHT22;3995;50.856;4.404;2023-11-19T05:19:06;15.00;75.10
7900;DHT22;3995;50.856;4.404;2023-11-19T05:21:36;15.00;75.10
7900;DHT22;3995;50.856;4.404;2023-11-19T05:24:03;15.00;74.90
7900;DHT22;3995;50.856;4.404;2023-11-19T05:26:30;15.00;74.90
7900;DHT22;3995;50.856;4.404;2023-11-19T05:28:57;15.00;74.90
7900;DHT22;3995;50.856;4.404;2023-11-19T05:31:24;15.00;74.90
7900;DHT22;3995;50.856;4.404;2023-11-19T05:33:51;15.00;74.80
7900;DHT22;3995;50.856;4.404;2023-11-19T05:36:18;15.00;74.80
7900;DHT22;3995;50.856;4.404;2023-11-19T05:38:47;15.00;74.60
7900;DHT22;3995;50.856;4.404;2023-11-19T05:41:14;15.00;74.50
7900;DHT22;3995;50.856;4.404;2023-11-19T05:43:41;15.00;74.40
7900;DHT22;3995;50.856;4.404;2023-11-19T05:46:08;15.00;74.20
7900;DHT22;3995;50.856;4.404;2023-11-19T05:48:35;15.00;74.00
7900;DHT22;3995;50.856;4.404;2023-11-19T05:51:02;15.00;73.90
7900;DHT22;3995;50.856;4.404;2023-11-19T05:53:29;15.00;73.80
7900;DHT22;3995;50.856;4.404;2023-11-19T05:55:58;14.90;73.60
7900;DHT22;3995;50.856;4.404;2023-11-19T05:58:29;15.00;73.50
7900;DHT22;3995;50.856;4.404;2023-11-19T06:00:58;14.90;73.30
7900;DHT22;3995;50.856;4.404;2023-11-19T06:03:26;15.00;73.30
7900;DHT22;3995;50.856;4.404;2023-11-19T06:05:53;14.90;73.10
7900;DHT22;3995;50.856;4.404;2023-11-19T06:08:21;15.00;73.20
7900;DHT22;3995;50.856;4.404;2023-11-19T06:10:48;14.90;73.10
7900;DHT22;3995;50.856;4.404;2023-11-19T06:13:17;14.90;73.20
7900;DHT22;3995;50.856;4.404;2023-11-19T06:15:45;14.90;73.20
7900;DHT22;3995;50.856;4.404;2023-11-19T06:18:12;14.90;73.30
7900;DHT22;3995;50.856;4.404;2023-11-19T06:20:40;14.90;73.20
7900;DHT22;3995;50.856;4.404;2023-11-19T06:23:07;14.90;73.20
7900;DHT22;3995;50.856;4.404;2023-11-19T06:25:34;14.90;73.20
7900;DHT22;3995;50.856;4.404;2023-11-19T06:28:02;14.90;73.20
7900;DHT22;3995;50.856;4.404;2023-11-19T06:30:30;14.90;73.20
7900;DHT22;3995;50.856;4.404;2023-11-19T06:32:58;14.90;73.10
7900;DHT22;3995;50.856;4.404;2023-11-19T06:35:25;14.90;73.20
7900;DHT22;3995;50.856;4.404;2023-11-19T06:37:52;14.90;73.20
7900;DHT22;3995;50.856;4.404;2023-11-19T06:40:19;14.90;73.20
7900;DHT22;3995;50.856;4.404;2023-11-19T06:42:46;14.90;73.20
7900;DHT22;3995;50.856;4.404;2023-11-19T06:45:13;14.90;73.10
7900;DHT22;3995;50.856;4.404;2023-11-19T06:47:42;14.90;73.10
7900;DHT22;3995;50.856;4.404;2023-11-19T06:50:09;14.90;73.10
7900;DHT22;3995;50.856;4.404;2023-11-19T06:52:37;14.90;73.00
7900;DHT22;3995;50.856;4.404;2023-11-19T06:55:06;14.90;72.90
7900;DHT22;3995;50.856;4.404;2023-11-19T06:57:33;14.90;72.90
7900;DHT22;3995;50.856;4.404;2023-11-19T07:00:00;14.90;72.80
7900;DHT22;3995;50.856;4.404;2023-11-19T07:02:28;14.90;72.70
7900;DHT22;3995;50.856;4.404;2023-11-19T07:04:57;14.90;72.70
7900;DHT22;3995;50.856;4.404;2023-11-19T07:07:25;14.90;72.70
7900;DHT22;3995;50.856;4.404;2023-11-19T07:09:53;14.80;72.60
7900;DHT22;3995;50.856;4.404;2023-11-19T07:12:20;14.80;72.60
7900;DHT22;3995;50.856;4.404;2023-11-19T07:14:47;14.80;72.60
7900;DHT22;3995;50.856;4.404;2023-11-19T07:17:14;14.80;72.60
7900;DHT22;3995;50.856;4.404;2023-11-19T07:19:41;14.80;72.50
7900;DHT22;3995;50.856;4.404;2023-11-19T07:22:09;14.80;72.60
7900;DHT22;3995;50.856;4.404;2023-11-19T07:24:39;14.90;72.70
7900;DHT22;3995;50.856;4.404;2023-11-19T07:27:06;14.80;72.60
7900;DHT22;3995;50.856;4.404;2023-11-19T07:29:34;14.80;72.60
7900;DHT22;3995;50.856;4.404;2023-11-19T07:32:01;14.80;72.50
7900;DHT22;3995;50.856;4.404;2023-11-19T07:34:28;14.80;72.50
7900;DHT22;3995;50.856;4.404;2023-11-19T07:36:55;14.80;72.40
7900;DHT22;3995;50.856;4.404;2023-11-19T07:39:26;14.80;72.40
7900;DHT22;3995;50.856;4.404;2023-11-19T07:41:53;14.80;72.30
7900;DHT22;3995;50.856;4.404;2023-11-19T07:44:21;14.80;72.30
7900;DHT22;3995;50.856;4.404;2023-11-19T07:46:48;14.80;72.20
7900;DHT22;3995;50.856;4.404;2023-11-19T07:49:15;14.80;72.10
7900;DHT22;3995;50.856;4.404;2023-11-19T07:51:42;14.80;71.90
7900;DHT22;3995;50.856;4.404;2023-11-19T07:54:09;14.80;71.80
7900;DHT22;3995;50.856;4.404;2023-11-19T07:56:37;14.80;71.80
7900;DHT22;3995;50.856;4.404;2023-11-19T07:59:04;14.80;71.70
7900;DHT22;3995;50.856;4.404;2023-11-19T08:01:32;14.80;71.70
7900;DHT22;3995;50.856;4.404;2023-11-19T08:03:59;14.80;71.60
7900;DHT22;3995;50.856;4.404;2023-11-19T08:06:27;14.80;71.60
7900;DHT22;3995;50.856;4.404;2023-11-19T08:08:54;14.80;71.60
7900;DHT22;3995;50.856;4.404;2023-11-19T08:11:24;14.80;71.50
7900;DHT22;3995;50.856;4.404;2023-11-19T08:13:52;14.80;71.30
7900;DHT22;3995;50.856;4.404;2023-11-19T08:16:19;14.80;71.40
7900;DHT22;3995;50.856;4.404;2023-11-19T08:18:47;14.80;71.40
7900;DHT22;3995;50.856;4.404;2023-11-19T08:21:14;14.80;71.40
7900;DHT22;3995;50.856;4.404;2023-11-19T08:23:41;14.80;71.30
7900;DHT22;3995;50.856;4.404;2023-11-19T08:26:08;14.80;71.20
7900;DHT22;3995;50.856;4.404;2023-11-19T08:28:35;14.80;71.20
7900;DHT22;3995;50.856;4.404;2023-11-19T08:31:04;14.80;71.10
7900;DHT22;3995;50.856;4.404;2023-11-19T08:33:31;14.80;71.00
7900;DHT22;3995;50.856;4.404;2023-11-19T08:35:58;14.80;71.10
7900;DHT22;3995;50.856;4.404;2023-11-19T08:38:26;14.80;71.00
7900;DHT22;3995;50.856;4.404;2023-11-19T08:40:53;14.80;71.00
7900;DHT22;3995;50.856;4.404;2023-11-19T08:43:25;14.80;71.00
7900;DHT22;3995;50.856;4.404;2023-11-19T08:45:52;14.80;71.00
7900;DHT22;3995;50.856;4.404;2023-11-19T08:48:21;14.80;71.20
7900;DHT22;3995;50.856;4.404;2023-11-19T08:50:48;14.90;71.40
7900;DHT22;3995;50.856;4.404;2023-11-19T08:53:15;14.80;71.60
7900;DHT22;3995;50.856;4.404;2023-11-19T08:55:42;14.90;71.90
7900;DHT22;3995;50.856;4.404;2023-11-19T08:58:09;14.80;72.00
7900;DHT22;3995;50.856;4.404;2023-11-19T09:00:36;14.80;72.20
7900;DHT22;3995;50.856;4.404;2023-11-19T09:03:03;14.90;72.30
7900;DHT22;3995;50.856;4.404;2023-11-19T09:05:32;14.90;72.30
7900;DHT22;3995;50.856;4.404;2023-11-19T09:07:59;14.90;72.30
7900;DHT22;3995;50.856;4.404;2023-11-19T09:10:26;14.90;72.20
7900;DHT22;3995;50.856;4.404;2023-11-19T09:12:55;14.90;72.20
7900;DHT22;3995;50.856;4.404;2023-11-19T09:15:22;14.90;72.00
7900;DHT22;3995;50.856;4.404;2023-11-19T09:17:49;14.80;71.60
7900;DHT22;3995;50.856;4.404;2023-11-19T09:20:16;14.90;71.50
7900;DHT22;3995;50.856;4.404;2023-11-19T09:22:45;14.90;71.30
7900;DHT22;3995;50.856;4.404;2023-11-19T09:25:12;14.90;71.30
7900;DHT22;3995;50.856;4.404;2023-11-19T09:27:42;14.90;71.20
7900;DHT22;3995;50.856;4.404;2023-11-19T09:30:10;14.90;71.10
7900;DHT22;3995;50.856;4.404;2023-11-19T09:32:37;14.90;71.10
7900;DHT22;3995;50.856;4.404;2023-11-19T09:35:05;14.90;71.10
7900;DHT22;3995;50.856;4.404;2023-11-19T09:37:32;15.00;71.20
7900;DHT22;3995;50.856;4.404;2023-11-19T09:40:01;14.90;71.20
7900;DHT22;3995;50.856;4.404;2023-11-19T09:42:28;15.00;71.30
7900;DHT22;3995;50.856;4.404;2023-11-19T09:44:59;15.00;71.30
7900;DHT22;3995;50.856;4.404;2023-11-19T09:47:29;14.90;71.30
7900;DHT22;3995;50.856;4.404;2023-11-19T09:49:56;14.90;71.40
7900;DHT22;3995;50.856;4.404;2023-11-19T09:52:24;14.90;71.50
7900;DHT22;3995;50.856;4.404;2023-11-19T09:54:51;15.00;71.50
7900;DHT22;3995;50.856;4.404;2023-11-19T09:57:20;15.00;71.50
7900;DHT22;3995;50.856;4.404;2023-11-19T09:59:47;15.00;71.40
7900;DHT22;3995;50.856;4.404;2023-11-19T10:02:15;15.00;71.40
7900;DHT22;3995;50.856;4.404;2023-11-19T10:04:43;15.00;71.30
7900;DHT22;3995;50.856;4.404;2023-11-19T10:07:12;15.00;71.30
7900;DHT22;3995;50.856;4.404;2023-11-19T10:09:39;15.00;71.30
7900;DHT22;3995;50.856;4.404;2023-11-19T10:12:07;15.00;71.30
7900;DHT22;3995;50.856;4.404;2023-11-19T10:14:37;15.10;71.40
7900;DHT22;3995;50.856;4.404;2023-11-19T10:17:07;15.10;71.30
7900;DHT22;3995;50.856;4.404;2023-11-19T10:19:34;15.10;71.30
7900;DHT22;3995;50.856;4.404;2023-11-19T10:22:04;15.10;71.30
7900;DHT22;3995;50.856;4.404;2023-11-19T10:24:32;15.10;71.30
7900;DHT22;3995;50.856;4.404;2023-11-19T10:26:59;15.10;71.30
7900;DHT22;3995;50.856;4.404;2023-11-19T10:29:29;15.10;71.20
7900;DHT22;3995;50.856;4.404;2023-11-19T10:31:58;15.10;71.20
7900;DHT22;3995;50.856;4.404;2023-11-19T10:34:26;15.10;71.20
7900;DHT22;3995;50.856;4.404;2023-11-19T10:36:55;15.10;71.10
7900;DHT22;3995;50.856;4.404;2023-11-19T10:39:22;15.20;71.10
7900;DHT22;3995;50.856;4.404;2023-11-19T10:41:50;15.20;71.10
7900;DHT22;3995;50.856;4.404;2023-11-19T10:44:31;15.20;70.90
7900;DHT22;3995;50.856;4.404;2023-11-19T10:47:05;15.20;70.50
7900;DHT22;3995;50.856;4.404;2023-11-19T10:49:34;15.20;70.70
7900;DHT22;3995;50.856;4.404;2023-11-19T10:52:03;15.20;70.90
7900;DHT22;3995;50.856;4.404;2023-11-19T10:54:34;15.20;70.80
7900;DHT22;3995;50.856;4.404;2023-11-19T10:57:02;15.20;70.70
7900;DHT22;3995;50.856;4.404;2023-11-19T10:59:31;15.20;70.70
7900;DHT22;3995;50.856;4.404;2023-11-19T11:02:03;15.20;70.70
7900;DHT22;3995;50.856;4.404;2023-11-19T11:04:33;15.20;70.70
7900;DHT22;3995;50.856;4.404;2023-11-19T11:07:04;15.20;70.70
7900;DHT22;3995;50.856;4.404;2023-11-19T11:09:32;15.20;70.70
7900;DHT22;3995;50.856;4.404;2023-11-19T11:11:59;15.20;70.60
7900;DHT22;3995;50.856;4.404;2023-11-19T11:14:27;15.20;70.60
7900;DHT22;3995;50.856;4.404;2023-11-19T11:16:56;15.30;70.60
7900;DHT22;3995;50.856;4.404;2023-11-19T11:19:26;15.20;70.50
7900;DHT22;3995;50.856;4.404;2023-11-19T11:21:54;15.20;70.40
7900;DHT22;3995;50.856;4.404;2023-11-19T11:24:50;15.20;70.40
7900;DHT22;3995;50.856;4.404;2023-11-19T11:27:44;15.30;70.40
7900;DHT22;3995;50.856;4.404;2023-11-19T11:30:24;15.20;70.50
7900;DHT22;3995;50.856;4.404;2023-11-19T11:33:03;15.30;70.70
7900;DHT22;3995;50.856;4.404;2023-11-19T11:35:41;15.20;70.70
7900;DHT22;3995;50.856;4.404;2023-11-19T11:38:14;15.20;70.60
7900;DHT22;3995;50.856;4.404;2023-11-19T11:40:42;15.20;70.70
7900;DHT22;3995;50.856;4.404;2023-11-19T11:46:09;15.20;70.50
7900;DHT22;3995;50.856;4.404;2023-11-19T11:48:43;15.20;70.80
7900;DHT22;3995;50.856;4.404;2023-11-19T11:51:13;15.30;70.70
7900;DHT22;3995;50.856;4.404;2023-11-19T11:53:41;15.20;70.60
7900;DHT22;3995;50.856;4.404;2023-11-19T11:56:09;15.20;70.50
7900;DHT22;3995;50.856;4.404;2023-11-19T11:58:36;15.20;70.30
7900;DHT22;3995;50.856;4.404;2023-11-19T12:01:08;15.30;70.20
7900;DHT22;3995;50.856;4.404;2023-11-19T12:03:37;15.30;70.00
7900;DHT22;3995;50.856;4.404;2023-11-19T12:06:05;15.30;69.90
7900;DHT22;3995;50.856;4.404;2023-11-19T12:08:35;15.30;69.70
7900;DHT22;3995;50.856;4.404;2023-11-19T12:11:02;15.30;69.50
7900;DHT22;3995;50.856;4.404;2023-11-19T12:13:46;15.30;69.40
7900;DHT22;3995;50.856;4.404;2023-11-19T12:16:14;15.40;69.30
7900;DHT22;3995;50.856;4.404;2023-11-19T12:18:41;15.30;69.30
7900;DHT22;3995;50.856;4.404;2023-11-19T12:21:08;15.40;69.40
7900;DHT22;3995;50.856;4.404;2023-11-19T12:23:47;15.40;69.40
7900;DHT22;3995;50.856;4.404;2023-11-19T12:26:33;15.40;69.30
7900;DHT22;3995;50.856;4.404;2023-11-19T12:29:01;15.40;69.20
7900;DHT22;3995;50.856;4.404;2023-11-19T12:31:32;15.40;69.50
7900;DHT22;3995;50.856;4.404;2023-11-19T12:34:14;15.30;69.40
7900;DHT22;3995;50.856;4.404;2023-11-19T12:36:41;15.40;69.50
7900;DHT22;3995;50.856;4.404;2023-11-19T12:39:10;15.30;69.40
7900;DHT22;3995;50.856;4.404;2023-11-19T12:41:53;15.30;69.40
7900;DHT22;3995;50.856;4.404;2023-11-19T12:44:20;15.30;69.40
7900;DHT22;3995;50.856;4.404;2023-11-19T12:47:03;15.30;69.60
7900;DHT22;3995;50.856;4.404;2023-11-19T12:49:30;15.30;69.50
7900;DHT22;3995;50.856;4.404;2023-11-19T12:51:57;15.20;69.60
7900;DHT22;3995;50.856;4.404;2023-11-19T12:54:36;15.30;69.70
7900;DHT22;3995;50.856;4.404;2023-11-19T12:57:04;15.30;69.50
7900;DHT22;3995;50.856;4.404;2023-11-19T12:59:31;15.30;69.60
7900;DHT22;3995;50.856;4.404;2023-11-19T13:01:59;15.30;69.60
7900;DHT22;3995;50.856;4.404;2023-11-19T13:04:28;15.30;69.50
7900;DHT22;3995;50.856;4.404;2023-11-19T13:06:56;15.30;69.40
7900;DHT22;3995;50.856;4.404;2023-11-19T13:09:23;15.30;69.30
7900;DHT22;3995;50.856;4.404;2023-11-19T13:11:53;15.30;69.50
7900;DHT22;3995;50.856;4.404;2023-11-19T13:14:20;15.30;69.50
7900;DHT22;3995;50.856;4.404;2023-11-19T13:16:47;15.30;69.50
7900;DHT22;3995;50.856;4.404;2023-11-19T13:19:15;15.30;70.10
7900;DHT22;3995;50.856;4.404;2023-11-19T13:21:44;15.40;69.50
7900;DHT22;3995;50.856;4.404;2023-11-19T13:24:13;15.40;69.40
7900;DHT22;3995;50.856;4.404;2023-11-19T13:26:40;15.40;69.30
7900;DHT22;3995;50.856;4.404;2023-11-19T13:29:09;15.40;69.20
7900;DHT22;3995;50.856;4.404;2023-11-19T13:31:36;15.40;69.10
7900;DHT22;3995;50.856;4.404;2023-11-19T13:34:04;15.40;69.20
7900;DHT22;3995;50.856;4.404;2023-11-19T13:36:32;15.40;69.10
7900;DHT22;3995;50.856;4.404;2023-11-19T13:38:59;15.40;69.20
7900;DHT22;3995;50.856;4.404;2023-11-19T13:41:27;15.40;69.20
7900;DHT22;3995;50.856;4.404;2023-11-19T13:43:54;15.40;69.40
7900;DHT22;3995;50.856;4.404;2023-11-19T13:46:22;15.40;69.50
7900;DHT22;3995;50.856;4.404;2023-11-19T13:48:50;15.40;69.60
7900;DHT22;3995;50.856;4.404;2023-11-19T13:51:17;15.40;69.70
7900;DHT22;3995;50.856;4.404;2023-11-19T13:53:44;15.40;69.80
7900;DHT22;3995;50.856;4.404;2023-11-19T13:56:11;15.40;69.80
7900;DHT22;3995;50.856;4.404;2023-11-19T13:58:38;15.40;69.80
7900;DHT22;3995;50.856;4.404;2023-11-19T14:01:13;15.40;69.70
7900;DHT22;3995;50.856;4.404;2023-11-19T14:03:43;15.40;69.50
7900;DHT22;3995;50.856;4.404;2023-11-19T14:06:15;15.40;69.50
7900;DHT22;3995;50.856;4.404;2023-11-19T14:08:43;15.30;69.50
7900;DHT22;3995;50.856;4.404;2023-11-19T14:11:10;15.40;69.70
7900;DHT22;3995;50.856;4.404;2023-11-19T14:13:40;15.30;69.70
7900;DHT22;3995;50.856;4.404;2023-11-19T14:16:08;15.40;69.80
7900;DHT22;3995;50.856;4.404;2023-11-19T14:18:38;15.30;69.80
7900;DHT22;3995;50.856;4.404;2023-11-19T14:21:06;15.30;69.70
7900;DHT22;3995;50.856;4.404;2023-11-19T14:23:33;15.30;69.70
7900;DHT22;3995;50.856;4.404;2023-11-19T14:26:06;15.40;69.70
7900;DHT22;3995;50.856;4.404;2023-11-19T14:28:33;15.40;69.50
7900;DHT22;3995;50.856;4.404;2023-11-19T14:31:01;15.30;69.40
7900;DHT22;3995;50.856;4.404;2023-11-19T14:33:28;15.30;69.60
7900;DHT22;3995;50.856;4.404;2023-11-19T14:35:56;15.30;69.90
7900;DHT22;3995;50.856;4.404;2023-11-19T14:38:30;15.30;70.20
7900;DHT22;3995;50.856;4.404;2023-11-19T14:40:58;15.40;70.40
7900;DHT22;3995;50.856;4.404;2023-11-19T14:43:26;15.30;70.50
7900;DHT22;3995;50.856;4.404;2023-11-19T14:45:54;15.30;70.50
7900;DHT22;3995;50.856;4.404;2023-11-19T14:48:26;15.40;70.60
7900;DHT22;3995;50.856;4.404;2023-11-19T14:50:53;15.30;70.40
7900;DHT22;3995;50.856;4.404;2023-11-19T14:53:20;15.30;70.50
7900;DHT22;3995;50.856;4.404;2023-11-19T14:55:49;15.30;70.40
7900;DHT22;3995;50.856;4.404;2023-11-19T14:58:16;15.30;70.50
7900;DHT22;3995;50.856;4.404;2023-11-19T15:00:44;15.30;70.40
7900;DHT22;3995;50.856;4.404;2023-11-19T15:03:11;15.30;70.40
7900;DHT22;3995;50.856;4.404;2023-11-19T15:05:39;15.30;70.20
7900;DHT22;3995;50.856;4.404;2023-11-19T15:08:07;15.30;70.20
7900;DHT22;3995;50.856;4.404;2023-11-19T15:10:34;15.30;70.20
7900;DHT22;3995;50.856;4.404;2023-11-19T15:13:03;15.30;70.20
7900;DHT22;3995;50.856;4.404;2023-11-19T15:15:31;15.30;70.20
7900;DHT22;3995;50.856;4.404;2023-11-19T15:17:58;15.30;70.30
7900;DHT22;3995;50.856;4.404;2023-11-19T15:20:25;15.30;70.20
7900;DHT22;3995;50.856;4.404;2023-11-19T15:22:55;15.30;70.10
7900;DHT22;3995;50.856;4.404;2023-11-19T15:25:23;15.30;70.00
7900;DHT22;3995;50.856;4.404;2023-11-19T15:27:50;15.30;69.90
7900;DHT22;3995;50.856;4.404;2023-11-19T15:30:19;15.30;69.70
7900;DHT22;3995;50.856;4.404;2023-11-19T15:32:46;15.30;69.50
7900;DHT22;3995;50.856;4.404;2023-11-19T15:35:16;15.30;69.40
7900;DHT22;3995;50.856;4.404;2023-11-19T15:37:57;15.30;69.20
7900;DHT22;3995;50.856;4.404;2023-11-19T15:40:34;15.30;69.00
7900;DHT22;3995;50.856;4.404;2023-11-19T15:46:14;15.30;68.90
7900;DHT22;3995;50.856;4.404;2023-11-19T15:48:47;15.30;68.70
7900;DHT22;3995;50.856;4.404;2023-11-19T15:51:25;15.30;68.30
7900;DHT22;3995;50.856;4.404;2023-11-19T15:53:53;15.30;68.30
7900;DHT22;3995;50.856;4.404;2023-11-19T15:56:40;15.30;68.10
7900;DHT22;3995;50.856;4.404;2023-11-19T15:59:15;15.20;67.90
7900;DHT22;3995;50.856;4.404;2023-11-19T16:01:52;15.20;67.80
7900;DHT22;3995;50.856;4.404;2023-11-19T16:04:27;15.20;67.80
7900;DHT22;3995;50.856;4.404;2023-11-19T16:07:20;15.20;67.70
7900;DHT22;3995;50.856;4.404;2023-11-19T16:10:03;15.20;67.80
7900;DHT22;3995;50.856;4.404;2023-11-19T16:12:44;15.20;67.80
7900;DHT22;3995;50.856;4.404;2023-11-19T16:15:17;15.20;67.80
7900;DHT22;3995;50.856;4.404;2023-11-19T16:18:06;15.20;67.80